Time,TemperatureF,DewpointF,PressureIn,WindDirection,WindDirectionDegrees,WindSpeedMPH,WindSpeedGustMPH,Humidity,HourlyPrecipIn,Conditions,Clouds,dailyrainin,SoftwareType,DateUTC
2013-01-15 00:00:00,39.9,36.3,30.19,NNE,17,0.0,0.0,87,0.00,,,0.00,Wunderground v.1.15,2013-01-15 05:00:00,
2013-01-15 00:02:00,39.9,36.3,30.19,NNE,17,0.0,0.0,87,0.00,,,0.00,Wunderground v.1.15,2013-01-15 05:02:00,
2013-01-15 00:05:00,39.9,36.3,30.19,NNE,18,0.0,0.0,87,0.00,,,0.00,Wunderground v.1.15,2013-01-15 05:05:00,
2013-01-15 00:06:00,39.9,36.3,30.19,NNE,18,0.0,0.0,87,0.00,,,0.00,Wunderground v.1.15,2013-01-15 05:06:00,
2013-01-15 00:12:00,39.9,36.3,30.19,NNE,18,0.0,1.0,87,0.00,,,0.00,Wunderground v.1.15,2013-01-15 05:12:00,
2013-01-15 00:18:00,39.8,36.2,30.19,NNE,17,0.0,1.0,87,0.00,,,0.01,Wunderground v.1.15,2013-01-15 05:18:00,
2013-01-15 00:24:00,39.8,36.2,30.19,NNE,17,0.0,0.0,87,0.00,,,0.01,Wunderground v.1.15,2013-01-15 05:24:00,
2013-01-15 00:29:00,39.8,36.5,30.18,NNE,18,0.0,0.0,88,0.00,,,0.01,Wunderground v.1.15,2013-01-15 05:29:00,
2013-01-15 00:35:00,39.8,36.5,30.18,NNE,17,0.0,0.0,88,0.00,,,0.01,Wunderground v.1.15,2013-01-15 05:35:00,
2013-01-15 00:41:00,39.8,36.5,30.18,NNE,17,0.0,1.0,88,0.00,,,0.01,Wunderground v.1.15,2013-01-15 05:41:00,
2013-01-15 00:46:00,39.6,36.3,30.19,NNE,18,0.0,1.0,88,0.00,,,0.02,Wunderground v.1.15,2013-01-15 05:46:00,
2013-01-15 00:52:00,39.6,36.3,30.19,NNE,17,0.0,0.0,88,0.00,,,0.02,Wunderground v.1.15,2013-01-15 05:52:00,
2013-01-15 00:58:00,39.5,36.2,30.19,NNE,18,1.0,1.0,88,0.06,,,0.03,Wunderground v.1.15,2013-01-15 05:58:00,
2013-01-15 01:04:00,39.3,36.0,30.18,East,84,1.0,1.0,88,0.09,,,0.04,Wunderground v.1.15,2013-01-15 06:04:00,
2013-01-15 01:10:00,39.1,35.8,30.18,East,84,0.0,0.0,88,0.06,,,0.04,Wunderground v.1.15,2013-01-15 06:10:00,
2013-01-15 01:15:00,38.8,35.6,30.18,East,84,0.0,1.0,88,0.06,,,0.05,Wunderground v.1.15,2013-01-15 06:15:00,
2013-01-15 01:21:00,38.8,35.6,30.18,East,84,0.0,1.0,88,0.10,,,0.06,Wunderground v.1.15,2013-01-15 06:21:00,
2013-01-15 01:27:00,38.6,35.4,30.18,East,84,0.0,1.0,88,0.06,,,0.06,Wunderground v.1.15,2013-01-15 06:27:00,
2013-01-15 01:32:00,38.6,35.4,30.17,East,84,1.0,1.0,88,0.05,,,0.07,Wunderground v.1.15,2013-01-15 06:32:00,
2013-01-15 01:38:00,38.6,35.4,30.17,East,84,0.0,1.0,88,0.11,,,0.08,Wunderground v.1.15,2013-01-15 06:38:00,
2013-01-15 01:43:00,38.5,35.3,30.17,East,84,0.0,0.0,88,0.11,,,0.09,Wunderground v.1.15,2013-01-15 06:43:00,
2013-01-15 01:49:00,38.3,35.1,30.18,East,84,0.0,0.0,88,0.14,,,0.10,Wunderground v.1.15,2013-01-15 06:49:00,
2013-01-15 01:55:00,38.3,35.1,30.18,East,84,0.0,1.0,88,0.08,,,0.11,Wunderground v.1.15,2013-01-15 06:55:00,
2013-01-15 02:01:00,38.2,35.2,30.17,East,84,0.0,0.0,89,0.08,,,0.11,Wunderground v.1.15,2013-01-15 07:01:00,
2013-01-15 02:06:00,38.0,35.0,30.17,East,81,1.0,2.0,89,0.05,,,0.11,Wunderground v.1.15,2013-01-15 07:06:00,
2013-01-15 02:11:00,38.0,35.0,30.17,East,81,0.0,0.0,89,0.00,,,0.11,Wunderground v.1.15,2013-01-15 07:11:00,
2013-01-15 02:16:00,37.9,34.9,30.16,East,81,2.0,2.0,89,0.00,,,0.11,Wunderground v.1.15,2013-01-15 07:16:00,
2013-01-15 02:21:00,37.9,34.9,30.16,East,81,0.0,0.0,89,0.00,,,0.11,Wunderground v.1.15,2013-01-15 07:21:00,
2013-01-15 02:26:00,38.0,35.0,30.16,East,81,0.0,1.0,89,0.00,,,0.11,Wunderground v.1.15,2013-01-15 07:26:00,
2013-01-15 02:31:00,38.0,35.0,30.16,East,81,1.0,2.0,89,0.00,,,0.11,Wunderground v.1.15,2013-01-15 07:31:00,
2013-01-15 02:36:00,38.0,35.0,30.16,NNE,19,0.0,4.0,89,0.00,,,0.11,Wunderground v.1.15,2013-01-15 07:36:00,
2013-01-15 02:41:00,37.9,34.9,30.16,NNE,19,1.0,1.0,89,0.00,,,0.12,Wunderground v.1.15,2013-01-15 07:41:00,
2013-01-15 02:46:00,37.9,34.9,30.15,ENE,63,0.0,2.0,89,0.00,,,0.12,Wunderground v.1.15,2013-01-15 07:46:00,
2013-01-15 02:51:00,37.9,34.9,30.15,East,91,0.0,1.0,89,0.00,,,0.12,Wunderground v.1.15,2013-01-15 07:51:00,
2013-01-15 02:56:00,37.9,35.2,30.15,East,91,0.0,2.0,90,0.00,,,0.12,Wunderground v.1.15,2013-01-15 07:56:00,
2013-01-15 03:01:00,37.9,35.2,30.15,East,91,1.0,1.0,90,0.00,,,0.12,Wunderground v.1.15,2013-01-15 08:01:00,
2013-01-15 03:06:00,37.8,35.1,30.15,NNE,24,0.0,2.0,90,0.00,,,0.12,Wunderground v.1.15,2013-01-15 08:06:00,
2013-01-15 03:11:00,37.8,35.1,30.15,NNE,24,0.0,0.0,90,0.00,,,0.12,Wunderground v.1.15,2013-01-15 08:11:00,
2013-01-15 03:17:00,37.8,35.1,30.15,NNE,24,0.0,0.0,90,0.00,,,0.12,Wunderground v.1.15,2013-01-15 08:17:00,
2013-01-15 03:22:00,37.8,35.1,30.15,NNE,24,0.0,4.0,90,0.00,,,0.12,Wunderground v.1.15,2013-01-15 08:22:00,
2013-01-15 03:27:00,37.6,34.9,30.15,NNE,24,0.0,0.0,90,0.00,,,0.12,Wunderground v.1.15,2013-01-15 08:27:00,
2013-01-15 03:32:00,37.6,34.9,30.15,NNE,24,0.0,2.0,90,0.00,,,0.12,Wunderground v.1.15,2013-01-15 08:32:00,
2013-01-15 03:37:00,37.6,34.9,30.15,NNE,24,0.0,0.0,90,0.00,,,0.12,Wunderground v.1.15,2013-01-15 08:37:00,
2013-01-15 03:42:00,37.5,34.8,30.15,NNE,15,1.0,5.0,90,0.00,,,0.12,Wunderground v.1.15,2013-01-15 08:42:00,
2013-01-15 03:47:00,37.3,34.6,30.18,NNE,29,0.0,2.0,90,0.00,,,0.12,Wunderground v.1.15,2013-01-15 08:47:00,
2013-01-15 03:52:00,37.2,34.5,30.18,NNE,22,1.0,4.0,90,0.00,,,0.12,Wunderground v.1.15,2013-01-15 08:52:00,
2013-01-15 03:57:00,37.0,34.3,30.18,NNE,20,1.0,2.0,90,0.00,,,0.12,Wunderground v.1.15,2013-01-15 08:57:00,
2013-01-15 04:02:00,37.0,34.3,30.18,NNE,20,1.0,1.0,90,0.00,,,0.12,Wunderground v.1.15,2013-01-15 09:02:00,
2013-01-15 04:07:00,37.0,34.3,30.18,NNE,20,2.0,2.0,90,0.00,,,0.12,Wunderground v.1.15,2013-01-15 09:07:00,
2013-01-15 04:12:00,36.9,34.2,30.18,NNE,20,0.0,4.0,90,0.00,,,0.12,Wunderground v.1.15,2013-01-15 09:12:00,
2013-01-15 04:17:00,36.9,34.2,30.17,NNE,20,1.0,4.0,90,0.00,,,0.12,Wunderground v.1.15,2013-01-15 09:17:00,
2013-01-15 04:22:00,36.8,34.1,30.17,NNE,20,0.0,2.0,90,0.00,,,0.12,Wunderground v.1.15,2013-01-15 09:22:00,
2013-01-15 04:27:00,36.8,34.1,30.17,NNE,13,2.0,4.0,90,0.00,,,0.12,Wunderground v.1.15,2013-01-15 09:27:00,
2013-01-15 04:32:00,36.8,34.1,30.17,SE,146,1.0,4.0,90,0.00,,,0.12,Wunderground v.1.15,2013-01-15 09:32:00,
2013-01-15 04:37:00,36.6,33.9,30.17,ENE,69,0.0,4.0,90,0.00,,,0.12,Wunderground v.1.15,2013-01-15 09:37:00,
2013-01-15 04:43:00,36.6,33.9,30.17,ENE,68,0.0,1.0,90,0.00,,,0.12,Wunderground v.1.15,2013-01-15 09:43:00,
2013-01-15 04:48:00,36.6,34.2,30.15,ENE,69,0.0,1.0,91,0.00,,,0.12,Wunderground v.1.15,2013-01-15 09:48:00,
2013-01-15 04:53:00,36.6,33.9,30.15,ENE,69,0.0,1.0,90,0.00,,,0.12,Wunderground v.1.15,2013-01-15 09:53:00,
2013-01-15 04:58:00,36.5,33.8,30.15,ENE,68,0.0,1.0,90,0.00,,,0.12,Wunderground v.1.15,2013-01-15 09:58:00,
2013-01-15 05:03:00,36.5,34.1,30.15,ENE,68,0.0,0.0,91,0.00,,,0.12,Wunderground v.1.15,2013-01-15 10:03:00,
2013-01-15 05:08:00,36.5,34.1,30.15,ENE,69,0.0,0.0,91,0.00,,,0.12,Wunderground v.1.15,2013-01-15 10:08:00,
2013-01-15 05:13:00,36.5,34.1,30.15,ENE,69,0.0,0.0,91,0.00,,,0.12,Wunderground v.1.15,2013-01-15 10:13:00,
2013-01-15 05:18:00,36.6,34.2,30.16,ENE,68,1.0,1.0,91,0.00,,,0.12,Wunderground v.1.15,2013-01-15 10:18:00,
2013-01-15 05:23:00,36.5,34.1,30.16,ENE,69,0.0,0.0,91,0.00,,,0.12,Wunderground v.1.15,2013-01-15 10:23:00,
2013-01-15 05:28:00,36.5,34.1,30.16,ENE,69,0.0,1.0,91,0.00,,,0.12,Wunderground v.1.15,2013-01-15 10:28:00,
2013-01-15 05:33:00,36.5,34.1,30.17,ENE,69,0.0,1.0,91,0.00,,,0.12,Wunderground v.1.15,2013-01-15 10:33:00,
2013-01-15 05:38:00,36.5,34.1,30.17,ENE,69,0.0,1.0,91,0.00,,,0.12,Wunderground v.1.15,2013-01-15 10:38:00,
2013-01-15 05:43:00,36.5,34.1,30.17,NW,320,0.0,1.0,91,0.00,,,0.12,Wunderground v.1.15,2013-01-15 10:43:00,
2013-01-15 05:48:00,36.5,34.1,30.18,NW,320,0.0,1.0,91,0.00,,,0.12,Wunderground v.1.15,2013-01-15 10:48:00,
2013-01-15 05:53:00,36.5,34.1,30.18,NW,320,1.0,2.0,91,0.00,,,0.12,Wunderground v.1.15,2013-01-15 10:53:00,
2013-01-15 05:58:00,36.5,34.1,30.18,NW,320,0.0,2.0,91,0.00,,,0.12,Wunderground v.1.15,2013-01-15 10:58:00,
2013-01-15 06:03:00,36.3,33.9,30.19,NW,320,0.0,2.0,91,0.00,,,0.12,Wunderground v.1.15,2013-01-15 11:03:00,
2013-01-15 06:08:00,36.3,33.9,30.19,NW,320,0.0,2.0,91,0.00,,,0.12,Wunderground v.1.15,2013-01-15 11:08:00,
2013-01-15 06:13:00,36.2,33.8,30.19,NW,320,2.0,2.0,91,0.00,,,0.12,Wunderground v.1.15,2013-01-15 11:13:00,
2013-01-15 06:18:00,36.2,33.8,30.20,NW,320,0.0,2.0,91,0.00,,,0.12,Wunderground v.1.15,2013-01-15 11:18:00,
2013-01-15 06:23:00,36.0,33.6,30.20,NW,320,0.0,2.0,91,0.00,,,0.12,Wunderground v.1.15,2013-01-15 11:23:00,
2013-01-15 06:28:00,36.0,33.6,30.20,NW,320,1.0,2.0,91,0.00,,,0.12,Wunderground v.1.15,2013-01-15 11:28:00,
2013-01-15 06:33:00,35.9,33.5,30.19,NW,320,0.0,1.0,91,0.00,,,0.12,Wunderground v.1.15,2013-01-15 11:33:00,
2013-01-15 06:38:00,35.9,33.5,30.19,NW,320,1.0,2.0,91,0.00,,,0.12,Wunderground v.1.15,2013-01-15 11:38:00,
2013-01-15 06:43:00,35.9,33.5,30.19,NW,320,0.0,1.0,91,0.00,,,0.12,Wunderground v.1.15,2013-01-15 11:43:00,
2013-01-15 06:48:00,35.9,33.5,30.20,NW,320,1.0,2.0,91,0.00,,,0.12,Wunderground v.1.15,2013-01-15 11:48:00,
2013-01-15 06:53:00,35.9,33.5,30.20,NW,320,0.0,2.0,91,0.00,,,0.12,Wunderground v.1.15,2013-01-15 11:53:00,
2013-01-15 06:58:00,35.9,33.5,30.20,NW,320,0.0,2.0,91,0.00,,,0.12,Wunderground v.1.15,2013-01-15 11:58:00,
2013-01-15 07:03:00,35.9,33.5,30.20,NW,320,0.0,1.0,91,0.00,,,0.12,Wunderground v.1.15,2013-01-15 12:03:00,
2013-01-15 07:09:00,35.9,33.5,30.20,NW,320,0.0,2.0,91,0.00,,,0.12,Wunderground v.1.15,2013-01-15 12:09:00,
2013-01-15 07:14:00,35.8,33.2,30.20,NW,320,0.0,3.0,90,0.00,,,0.12,Wunderground v.1.15,2013-01-15 12:14:00,
2013-01-15 07:19:00,35.8,33.4,30.20,NW,320,0.0,3.0,91,0.00,,,0.12,Wunderground v.1.15,2013-01-15 12:19:00,
2013-01-15 07:24:00,35.8,33.2,30.20,NW,320,0.0,2.0,90,0.00,,,0.12,Wunderground v.1.15,2013-01-15 12:24:00,
2013-01-15 07:29:00,35.8,33.2,30.20,NW,321,0.0,4.0,90,0.00,,,0.12,Wunderground v.1.15,2013-01-15 12:29:00,
2013-01-15 07:34:00,35.6,33.0,30.22,North,11,0.0,5.0,90,0.00,,,0.12,Wunderground v.1.15,2013-01-15 12:34:00,
2013-01-15 07:39:00,35.8,33.2,30.22,North,11,0.0,5.0,90,0.00,,,0.12,Wunderground v.1.15,2013-01-15 12:39:00,
2013-01-15 07:44:00,35.6,33.0,30.22,North,11,2.0,4.0,90,0.00,,,0.12,Wunderground v.1.15,2013-01-15 12:44:00,
2013-01-15 07:49:00,35.6,33.0,30.21,NNE,21,2.0,4.0,90,0.00,,,0.12,Wunderground v.1.15,2013-01-15 12:49:00,
2013-01-15 07:54:00,35.8,33.2,30.21,NE,35,0.0,2.0,90,0.00,,,0.12,Wunderground v.1.15,2013-01-15 12:54:00,
2013-01-15 07:59:00,35.8,33.2,30.22,NE,35,1.0,2.0,90,0.00,,,0.12,Wunderground v.1.15,2013-01-15 12:59:00,
2013-01-15 08:04:00,35.8,33.2,30.22,NNE,32,0.0,5.0,90,0.00,,,0.12,Wunderground v.1.15,2013-01-15 13:04:00,
2013-01-15 08:09:00,35.8,33.2,30.22,NNE,26,2.0,2.0,90,0.00,,,0.12,Wunderground v.1.15,2013-01-15 13:09:00,
2013-01-15 08:14:00,35.9,33.3,30.23,NNE,26,1.0,2.0,90,0.00,,,0.12,Wunderground v.1.15,2013-01-15 13:14:00,
2013-01-15 08:19:00,35.9,33.3,30.23,NNE,26,1.0,2.0,90,0.00,,,0.12,Wunderground v.1.15,2013-01-15 13:19:00,
2013-01-15 08:24:00,36.0,33.4,30.23,North,360,1.0,3.0,90,0.00,,,0.12,Wunderground v.1.15,2013-01-15 13:24:00,
2013-01-15 08:29:00,36.0,33.1,30.23,North,360,0.0,1.0,89,0.00,,,0.12,Wunderground v.1.15,2013-01-15 13:29:00,
2013-01-15 08:34:00,36.0,33.1,30.23,NNE,32,0.0,5.0,89,0.00,,,0.12,Wunderground v.1.15,2013-01-15 13:34:00,
2013-01-15 08:39:00,36.0,33.1,30.23,NNE,32,1.0,2.0,89,0.00,,,0.12,Wunderground v.1.15,2013-01-15 13:39:00,
2013-01-15 08:44:00,36.0,33.1,30.24,NNE,24,0.0,6.0,89,0.00,,,0.12,Wunderground v.1.15,2013-01-15 13:44:00,
2013-01-15 08:49:00,36.0,33.1,30.24,NNE,24,4.0,4.0,89,0.00,,,0.12,Wunderground v.1.15,2013-01-15 13:49:00,
2013-01-15 08:54:00,36.2,33.3,30.24,North,10,0.0,5.0,89,0.00,,,0.12,Wunderground v.1.15,2013-01-15 13:54:00,
2013-01-15 08:59:00,36.3,33.1,30.25,North,11,0.0,1.0,88,0.00,,,0.12,Wunderground v.1.15,2013-01-15 13:59:00,
2013-01-15 09:04:00,36.5,33.3,30.25,North,11,2.0,4.0,88,0.00,,,0.12,Wunderground v.1.15,2013-01-15 14:04:00,
2013-01-15 09:09:00,36.5,33.3,30.25,NNE,24,3.0,5.0,88,0.00,,,0.12,Wunderground v.1.15,2013-01-15 14:09:00,
2013-01-15 09:14:00,36.6,33.4,30.24,NNE,24,0.0,1.0,88,0.00,,,0.12,Wunderground v.1.15,2013-01-15 14:14:00,
2013-01-15 09:19:00,36.8,33.6,30.24,NW,306,1.0,2.0,88,0.00,,,0.12,Wunderground v.1.15,2013-01-15 14:19:00,
2013-01-15 09:24:00,36.8,33.6,30.24,NNE,24,0.0,5.0,88,0.00,,,0.12,Wunderground v.1.15,2013-01-15 14:24:00,
2013-01-15 09:29:00,36.8,33.3,30.23,NNE,24,0.0,5.0,87,0.00,,,0.12,Wunderground v.1.15,2013-01-15 14:29:00,
2013-01-15 09:34:00,36.8,33.3,30.23,NNE,24,4.0,4.0,87,0.00,,,0.12,Wunderground v.1.15,2013-01-15 14:34:00,
2013-01-15 09:40:00,36.8,33.3,30.23,NNW,345,2.0,5.0,87,0.00,,,0.12,Wunderground v.1.15,2013-01-15 14:40:00,
2013-01-15 09:45:00,36.6,32.8,30.24,NNE,32,2.0,5.0,86,0.00,,,0.12,Wunderground v.1.15,2013-01-15 14:45:00,
2013-01-15 09:50:00,36.9,33.1,30.24,NNE,32,0.0,5.0,86,0.00,,,0.12,Wunderground v.1.15,2013-01-15 14:50:00,
2013-01-15 09:55:00,36.9,32.8,30.24,ENE,69,0.0,4.0,85,0.00,,,0.12,Wunderground v.1.15,2013-01-15 14:55:00,
2013-01-15 10:00:00,37.0,32.9,30.26,ENE,69,0.0,4.0,85,0.00,,,0.12,Wunderground v.1.15,2013-01-15 15:00:00,
2013-01-15 10:05:00,37.3,33.2,30.26,NNE,31,0.0,4.0,85,0.00,,,0.12,Wunderground v.1.15,2013-01-15 15:05:00,
2013-01-15 10:10:00,37.3,32.9,30.26,NNE,30,0.0,4.0,84,0.00,,,0.12,Wunderground v.1.15,2013-01-15 15:10:00,
2013-01-15 10:15:00,37.5,33.1,30.26,NNE,31,0.0,1.0,84,0.00,,,0.12,Wunderground v.1.15,2013-01-15 15:15:00,
2013-01-15 10:20:00,37.5,33.1,30.26,NNE,31,0.0,0.0,84,0.00,,,0.12,Wunderground v.1.15,2013-01-15 15:20:00,
2013-01-15 10:25:00,37.5,32.8,30.26,NNE,30,1.0,4.0,83,0.00,,,0.12,Wunderground v.1.15,2013-01-15 15:25:00,
2013-01-15 10:30:00,37.3,32.3,30.26,NNE,26,2.0,2.0,82,0.00,,,0.12,Wunderground v.1.15,2013-01-15 15:30:00,
2013-01-15 10:35:00,37.3,32.0,30.26,NNE,26,0.0,6.0,81,0.00,,,0.12,Wunderground v.1.15,2013-01-15 15:35:00,
2013-01-15 10:40:00,37.3,31.7,30.26,NNE,26,1.0,2.0,80,0.00,,,0.12,Wunderground v.1.15,2013-01-15 15:40:00,
2013-01-15 10:45:00,37.5,31.9,30.25,NNE,26,2.0,4.0,80,0.00,,,0.12,Wunderground v.1.15,2013-01-15 15:45:00,
2013-01-15 10:50:00,37.5,31.6,30.25,NNE,32,2.0,4.0,79,0.00,,,0.12,Wunderground v.1.15,2013-01-15 15:50:00,
2013-01-15 10:55:00,37.5,31.3,30.25,NNE,26,2.0,5.0,78,0.00,,,0.12,Wunderground v.1.15,2013-01-15 15:55:00,
2013-01-15 11:00:00,37.5,31.3,30.25,NNE,16,3.0,3.0,78,0.00,,,0.12,Wunderground v.1.15,2013-01-15 16:00:00,
2013-01-15 11:05:00,37.3,30.7,30.25,NNE,20,2.0,4.0,77,0.00,,,0.12,Wunderground v.1.15,2013-01-15 16:05:00,
2013-01-15 11:10:00,37.5,30.6,30.25,NNE,22,1.0,2.0,76,0.00,,,0.12,Wunderground v.1.15,2013-01-15 16:10:00,
2013-01-15 11:15:00,37.6,30.7,30.25,NNE,13,0.0,5.0,76,0.00,,,0.12,Wunderground v.1.15,2013-01-15 16:15:00,
2013-01-15 11:20:00,37.6,30.7,30.25,NNE,23,4.0,4.0,76,0.00,,,0.12,Wunderground v.1.15,2013-01-15 16:20:00,
2013-01-15 11:25:00,37.6,30.4,30.25,NNE,15,5.0,5.0,75,0.00,,,0.12,Wunderground v.1.15,2013-01-15 16:25:00,
2013-01-15 11:30:00,37.6,30.4,30.25,NNE,31,1.0,2.0,75,0.00,,,0.12,Wunderground v.1.15,2013-01-15 16:30:00,
2013-01-15 11:35:00,37.9,30.7,30.25,NNE,31,1.0,3.0,75,0.00,,,0.12,Wunderground v.1.15,2013-01-15 16:35:00,
2013-01-15 11:41:00,38.2,31.0,30.25,ENE,76,0.0,4.0,75,0.00,,,0.12,Wunderground v.1.15,2013-01-15 16:41:00,
2013-01-15 11:46:00,38.2,30.6,30.23,NNE,17,0.0,4.0,74,0.00,,,0.12,Wunderground v.1.15,2013-01-15 16:46:00,
2013-01-15 11:52:00,38.3,30.7,30.23,NNE,32,1.0,2.0,74,0.00,,,0.12,Wunderground v.1.15,2013-01-15 16:52:00,
2013-01-15 11:57:00,38.5,30.9,30.23,NE,39,1.0,2.0,74,0.00,,,0.12,Wunderground v.1.15,2013-01-15 16:57:00,
2013-01-15 12:02:00,38.3,30.4,30.22,NE,39,1.0,4.0,73,0.00,,,0.12,Wunderground v.1.15,2013-01-15 17:02:00,
2013-01-15 12:07:00,38.3,30.4,30.22,NNE,28,0.0,4.0,73,0.00,,,0.12,Wunderground v.1.15,2013-01-15 17:07:00,
2013-01-15 12:12:00,38.3,30.4,30.22,ENE,57,0.0,2.0,73,0.00,,,0.12,Wunderground v.1.15,2013-01-15 17:12:00,
2013-01-15 12:17:00,38.3,30.4,30.21,NE,34,1.0,4.0,73,0.00,,,0.12,Wunderground v.1.15,2013-01-15 17:17:00,
2013-01-15 12:22:00,38.3,30.4,30.21,NE,44,3.0,3.0,73,0.00,,,0.12,Wunderground v.1.15,2013-01-15 17:22:00,
2013-01-15 12:27:00,38.3,30.4,30.21,NNE,28,1.0,5.0,73,0.00,,,0.12,Wunderground v.1.15,2013-01-15 17:27:00,
2013-01-15 12:32:00,38.2,30.3,30.19,ENE,73,5.0,5.0,73,0.00,,,0.12,Wunderground v.1.15,2013-01-15 17:32:00,
2013-01-15 12:37:00,38.0,29.8,30.19,NNE,22,0.0,5.0,72,0.00,,,0.12,Wunderground v.1.15,2013-01-15 17:37:00,
2013-01-15 12:42:00,38.2,30.0,30.19,NNE,22,1.0,2.0,72,0.00,,,0.12,Wunderground v.1.15,2013-01-15 17:42:00,
2013-01-15 12:48:00,38.2,30.0,30.20,NNE,22,0.0,2.0,72,0.00,,,0.12,Wunderground v.1.15,2013-01-15 17:48:00,
2013-01-15 12:53:00,38.2,30.0,30.20,NNE,22,0.0,1.0,72,0.00,,,0.12,Wunderground v.1.15,2013-01-15 17:53:00,
2013-01-15 12:58:00,38.2,30.0,30.20,NNE,22,0.0,2.0,72,0.00,,,0.12,Wunderground v.1.15,2013-01-15 17:58:00,
2013-01-15 13:03:00,38.0,29.8,30.19,NNE,22,0.0,1.0,72,0.00,,,0.12,Wunderground v.1.15,2013-01-15 18:03:00,
2013-01-15 13:08:00,38.2,30.0,30.19,NNE,22,0.0,2.0,72,0.00,,,0.12,Wunderground v.1.15,2013-01-15 18:08:00,
2013-01-15 13:13:00,38.2,30.0,30.19,NNE,22,0.0,2.0,72,0.00,,,0.12,Wunderground v.1.15,2013-01-15 18:13:00,
2013-01-15 13:18:00,38.2,30.0,30.19,NNE,22,0.0,2.0,72,0.00,,,0.12,Wunderground v.1.15,2013-01-15 18:18:00,
2013-01-15 13:24:00,38.0,29.8,30.19,NNE,22,0.0,2.0,72,0.00,,,0.12,Wunderground v.1.15,2013-01-15 18:24:00,
2013-01-15 13:29:00,38.0,29.8,30.19,NNE,22,0.0,2.0,72,0.00,,,0.12,Wunderground v.1.15,2013-01-15 18:29:00,
2013-01-15 13:34:00,38.2,30.0,30.18,NNE,22,0.0,1.0,72,0.00,,,0.12,Wunderground v.1.15,2013-01-15 18:34:00,
2013-01-15 13:39:00,38.3,30.4,30.18,NNE,22,1.0,1.0,73,0.00,,,0.12,Wunderground v.1.15,2013-01-15 18:39:00,
2013-01-15 13:44:00,38.2,30.0,30.18,NNE,22,0.0,0.0,72,0.00,,,0.12,Wunderground v.1.15,2013-01-15 18:44:00,
2013-01-15 13:49:00,38.3,30.4,30.18,NNE,22,2.0,2.0,73,0.00,,,0.12,Wunderground v.1.15,2013-01-15 18:49:00,
2013-01-15 13:54:00,38.3,30.1,30.18,NNE,22,1.0,1.0,72,0.00,,,0.12,Wunderground v.1.15,2013-01-15 18:54:00,
2013-01-15 13:59:00,38.3,30.1,30.18,NNE,22,2.0,4.0,72,0.00,,,0.12,Wunderground v.1.15,2013-01-15 18:59:00,
2013-01-15 14:04:00,38.5,30.3,30.18,NNE,22,0.0,1.0,72,0.00,,,0.12,Wunderground v.1.15,2013-01-15 19:04:00,
2013-01-15 14:09:00,38.5,30.3,30.18,NNE,22,1.0,4.0,72,0.00,,,0.12,Wunderground v.1.15,2013-01-15 19:09:00,
2013-01-15 14:14:00,38.5,29.9,30.18,NNE,22,1.0,2.0,71,0.00,,,0.12,Wunderground v.1.15,2013-01-15 19:14:00,
2013-01-15 14:19:00,38.3,29.7,30.18,NNE,22,0.0,3.0,71,0.00,,,0.12,Wunderground v.1.15,2013-01-15 19:19:00,
2013-01-15 14:24:00,38.5,29.9,30.18,NNE,22,0.0,3.0,71,0.00,,,0.12,Wunderground v.1.15,2013-01-15 19:24:00,
2013-01-15 14:29:00,38.5,29.9,30.18,NNE,22,1.0,4.0,71,0.00,,,0.12,Wunderground v.1.15,2013-01-15 19:29:00,
2013-01-15 14:34:00,38.5,29.9,30.18,NNE,22,0.0,1.0,71,0.00,,,0.12,Wunderground v.1.15,2013-01-15 19:34:00,
2013-01-15 14:39:00,38.3,29.7,30.18,NNE,22,0.0,2.0,71,0.00,,,0.12,Wunderground v.1.15,2013-01-15 19:39:00,
2013-01-15 14:44:00,38.5,29.9,30.18,NNE,22,0.0,2.0,71,0.00,,,0.12,Wunderground v.1.15,2013-01-15 19:44:00,
2013-01-15 14:49:00,38.6,30.0,30.18,East,87,2.0,2.0,71,0.00,,,0.12,Wunderground v.1.15,2013-01-15 19:49:00,
2013-01-15 14:54:00,38.6,30.0,30.18,North,360,2.0,2.0,71,0.00,,,0.12,Wunderground v.1.15,2013-01-15 19:54:00,
2013-01-15 14:59:00,38.6,30.0,30.17,North,360,0.0,2.0,71,0.00,,,0.12,Wunderground v.1.15,2013-01-15 19:59:00,
2013-01-15 15:04:00,38.5,29.9,30.17,North,360,0.0,1.0,71,0.00,,,0.12,Wunderground v.1.15,2013-01-15 20:04:00,
2013-01-15 15:09:00,38.6,30.0,30.17,North,360,1.0,2.0,71,0.00,,,0.12,Wunderground v.1.15,2013-01-15 20:09:00,
2013-01-15 15:14:00,38.5,29.9,30.17,North,360,0.0,2.0,71,0.00,,,0.12,Wunderground v.1.15,2013-01-15 20:14:00,
2013-01-15 15:19:00,38.5,29.9,30.17,North,360,1.0,2.0,71,0.00,,,0.12,Wunderground v.1.15,2013-01-15 20:19:00,
2013-01-15 15:24:00,38.5,29.9,30.17,North,360,0.0,1.0,71,0.00,,,0.12,Wunderground v.1.15,2013-01-15 20:24:00,
2013-01-15 15:29:00,38.5,29.9,30.17,North,360,0.0,2.0,71,0.00,,,0.12,Wunderground v.1.15,2013-01-15 20:29:00,
2013-01-15 15:34:00,38.5,29.9,30.17,North,360,0.0,1.0,71,0.00,,,0.12,Wunderground v.1.15,2013-01-15 20:34:00,
2013-01-15 15:39:00,38.5,29.9,30.17,North,360,0.0,2.0,71,0.00,,,0.12,Wunderground v.1.15,2013-01-15 20:39:00,
2013-01-15 15:44:00,38.3,29.7,30.18,North,360,0.0,4.0,71,0.00,,,0.12,Wunderground v.1.15,2013-01-15 20:44:00,
2013-01-15 15:49:00,38.3,29.7,30.18,North,360,0.0,4.0,71,0.00,,,0.12,Wunderground v.1.15,2013-01-15 20:49:00,
2013-01-15 15:54:00,38.5,29.9,30.18,North,360,0.0,2.0,71,0.00,,,0.12,Wunderground v.1.15,2013-01-15 20:54:00,
2013-01-15 15:59:00,38.5,29.9,30.18,North,360,0.0,2.0,71,0.00,,,0.12,Wunderground v.1.15,2013-01-15 20:59:00,
2013-01-15 16:04:00,38.5,29.9,30.18,North,360,0.0,2.0,71,0.00,,,0.12,Wunderground v.1.15,2013-01-15 21:04:00,
2013-01-15 16:09:00,38.3,29.7,30.18,North,360,0.0,4.0,71,0.00,,,0.12,Wunderground v.1.15,2013-01-15 21:09:00,
2013-01-15 16:14:00,38.2,29.6,30.19,North,360,1.0,3.0,71,0.00,,,0.12,Wunderground v.1.15,2013-01-15 21:14:00,
2013-01-15 16:19:00,38.0,29.4,30.19,North,360,0.0,3.0,71,0.00,,,0.12,Wunderground v.1.15,2013-01-15 21:19:00,
2013-01-15 16:24:00,38.0,29.4,30.19,NNE,14,0.0,5.0,71,0.00,,,0.12,Wunderground v.1.15,2013-01-15 21:24:00,
2013-01-15 16:30:00,38.0,29.1,30.18,NNE,14,0.0,1.0,70,0.00,,,0.12,Wunderground v.1.15,2013-01-15 21:30:00,
2013-01-15 16:35:00,37.9,29.3,30.18,NNE,15,0.0,1.0,71,0.00,,,0.12,Wunderground v.1.15,2013-01-15 21:35:00,
2013-01-15 16:40:00,38.0,29.4,30.18,NNE,15,0.0,0.0,71,0.00,,,0.12,Wunderground v.1.15,2013-01-15 21:40:00,
2013-01-15 16:45:00,38.0,29.4,30.19,NNE,15,1.0,1.0,71,0.00,,,0.12,Wunderground v.1.15,2013-01-15 21:45:00,
2013-01-15 16:50:00,37.9,29.3,30.19,NNE,15,1.0,2.0,71,0.00,,,0.12,Wunderground v.1.15,2013-01-15 21:50:00,
2013-01-15 16:55:00,37.9,29.3,30.19,NNE,15,0.0,2.0,71,0.00,,,0.12,Wunderground v.1.15,2013-01-15 21:55:00,
2013-01-15 17:00:00,37.9,29.3,30.19,NNE,15,0.0,0.0,71,0.00,,,0.12,Wunderground v.1.15,2013-01-15 22:00:00,
2013-01-15 17:05:00,37.9,29.3,30.19,NNE,15,2.0,2.0,71,0.00,,,0.12,Wunderground v.1.15,2013-01-15 22:05:00,
2013-01-15 17:10:00,37.9,29.3,30.19,NNE,15,1.0,1.0,71,0.00,,,0.12,Wunderground v.1.15,2013-01-15 22:10:00,
2013-01-15 17:15:00,37.9,29.3,30.18,NNE,15,0.0,2.0,71,0.00,,,0.12,Wunderground v.1.15,2013-01-15 22:15:00,
2013-01-15 17:20:00,37.8,29.2,30.18,NNE,15,0.0,0.0,71,0.00,,,0.12,Wunderground v.1.15,2013-01-15 22:20:00,
2013-01-15 17:25:00,37.8,29.2,30.18,NNE,15,0.0,2.0,71,0.00,,,0.12,Wunderground v.1.15,2013-01-15 22:25:00,
2013-01-15 17:31:00,37.8,29.2,30.18,NNE,15,0.0,0.0,71,0.00,,,0.12,Wunderground v.1.15,2013-01-15 22:31:00,
2013-01-15 17:36:00,37.8,29.2,30.18,NNE,15,0.0,1.0,71,0.00,,,0.12,Wunderground v.1.15,2013-01-15 22:36:00,
2013-01-15 17:41:00,37.8,29.2,30.18,NNE,15,0.0,0.0,71,0.00,,,0.12,Wunderground v.1.15,2013-01-15 22:41:00,
2013-01-15 17:45:00,37.8,29.2,30.18,NNE,15,0.0,2.0,71,0.00,,,0.12,Wunderground v.1.15,2013-01-15 22:45:00,
2013-01-15 17:50:00,37.8,29.6,30.18,NNE,15,1.0,1.0,72,0.00,,,0.12,Wunderground v.1.15,2013-01-15 22:50:00,
2013-01-15 17:55:00,37.8,29.6,30.18,ENE,65,0.0,2.0,72,0.00,,,0.12,Wunderground v.1.15,2013-01-15 22:55:00,
2013-01-15 18:01:00,37.8,29.6,30.17,NNE,13,0.0,2.0,72,0.00,,,0.12,Wunderground v.1.15,2013-01-15 23:01:00,
2013-01-15 18:06:00,37.8,29.6,30.17,East,81,2.0,2.0,72,0.00,,,0.12,Wunderground v.1.15,2013-01-15 23:06:00,
2013-01-15 18:10:00,37.6,29.4,30.17,East,81,0.0,1.0,72,0.00,,,0.12,Wunderground v.1.15,2013-01-15 23:10:00,
2013-01-15 18:15:00,37.8,29.6,30.16,East,80,0.0,2.0,72,0.00,,,0.12,Wunderground v.1.15,2013-01-15 23:15:00,
2013-01-15 18:20:00,37.6,29.4,30.16,East,79,0.0,2.0,72,0.00,,,0.12,Wunderground v.1.15,2013-01-15 23:20:00,
2013-01-15 18:25:00,37.6,29.4,30.16,East,79,0.0,2.0,72,0.00,,,0.12,Wunderground v.1.15,2013-01-15 23:25:00,
2013-01-15 18:30:00,37.8,29.6,30.19,East,80,0.0,0.0,72,0.00,,,0.12,Wunderground v.1.15,2013-01-15 23:30:00,
2013-01-15 18:36:00,37.8,29.6,30.19,East,79,0.0,2.0,72,0.00,,,0.12,Wunderground v.1.15,2013-01-15 23:36:00,
2013-01-15 18:41:00,37.8,29.6,30.19,East,79,1.0,2.0,72,0.00,,,0.12,Wunderground v.1.15,2013-01-15 23:41:00,
2013-01-15 18:46:00,37.8,29.6,30.20,East,79,0.0,2.0,72,0.00,,,0.12,Wunderground v.1.15,2013-01-15 23:46:00,
2013-01-15 18:51:00,37.8,29.6,30.20,East,79,0.0,1.0,72,0.00,,,0.12,Wunderground v.1.15,2013-01-15 23:51:00,
2013-01-15 18:56:00,37.8,29.6,30.20,East,79,2.0,2.0,72,0.00,,,0.12,Wunderground v.1.15,2013-01-15 23:56:00,
2013-01-15 19:01:00,37.8,29.6,30.21,ENE,65,1.0,2.0,72,0.00,,,0.12,Wunderground v.1.15,2013-01-16 00:01:00,
2013-01-15 19:06:00,37.8,29.2,30.21,ENE,60,1.0,4.0,71,0.00,,,0.12,Wunderground v.1.15,2013-01-16 00:06:00,
2013-01-15 19:11:00,37.8,29.6,30.21,NNE,32,0.0,4.0,72,0.00,,,0.12,Wunderground v.1.15,2013-01-16 00:11:00,
2013-01-15 19:16:00,37.6,29.4,30.20,NNE,30,2.0,4.0,72,0.00,,,0.12,Wunderground v.1.15,2013-01-16 00:16:00,
2013-01-15 19:21:00,37.5,28.9,30.20,NNE,30,0.0,2.0,71,0.00,,,0.12,Wunderground v.1.15,2013-01-16 00:21:00,
2013-01-15 19:26:00,37.5,28.9,30.20,NNE,27,1.0,4.0,71,0.00,,,0.12,Wunderground v.1.15,2013-01-16 00:26:00,
2013-01-15 19:32:00,37.5,29.3,30.19,NNE,27,0.0,2.0,72,0.00,,,0.12,Wunderground v.1.15,2013-01-16 00:32:00,
2013-01-15 19:36:00,37.5,29.3,30.19,NNE,27,0.0,4.0,72,0.00,,,0.12,Wunderground v.1.15,2013-01-16 00:36:00,
2013-01-15 19:41:00,37.3,29.1,30.19,NNE,27,0.0,1.0,72,0.00,,,0.12,Wunderground v.1.15,2013-01-16 00:41:00,
2013-01-15 19:46:00,37.3,29.1,30.17,East,79,0.0,2.0,72,0.00,,,0.12,Wunderground v.1.15,2013-01-16 00:46:00,
2013-01-15 19:52:00,37.3,29.1,30.17,ENE,78,0.0,2.0,72,0.00,,,0.12,Wunderground v.1.15,2013-01-16 00:52:00,
2013-01-15 19:57:00,37.3,29.1,30.17,East,79,0.0,2.0,72,0.00,,,0.12,Wunderground v.1.15,2013-01-16 00:57:00,
2013-01-15 20:02:00,37.3,29.1,30.18,ENE,78,0.0,1.0,72,0.00,,,0.12,Wunderground v.1.15,2013-01-16 01:02:00,
2013-01-15 20:07:00,37.3,29.1,30.18,ENE,63,1.0,2.0,72,0.00,,,0.12,Wunderground v.1.15,2013-01-16 01:07:00,
2013-01-15 20:12:00,37.3,29.1,30.18,ENE,63,0.0,0.0,72,0.00,,,0.12,Wunderground v.1.15,2013-01-16 01:12:00,
2013-01-15 20:17:00,37.3,29.1,30.18,ENE,63,0.0,1.0,72,0.00,,,0.12,Wunderground v.1.15,2013-01-16 01:17:00,
2013-01-15 20:22:00,37.3,29.1,30.18,ENE,63,0.0,2.0,72,0.00,,,0.12,Wunderground v.1.15,2013-01-16 01:22:00,
2013-01-15 20:27:00,37.3,29.1,30.18,ENE,63,0.0,2.0,72,0.00,,,0.12,Wunderground v.1.15,2013-01-16 01:27:00,
2013-01-15 20:32:00,37.2,29.0,30.18,ENE,63,0.0,2.0,72,0.00,,,0.12,Wunderground v.1.15,2013-01-16 01:32:00,
2013-01-15 20:37:00,37.2,29.0,30.18,ENE,63,0.0,2.0,72,0.00,,,0.12,Wunderground v.1.15,2013-01-16 01:37:00,
2013-01-15 20:42:00,37.2,29.0,30.18,East,79,0.0,4.0,72,0.00,,,0.12,Wunderground v.1.15,2013-01-16 01:42:00,
2013-01-15 20:47:00,37.2,29.0,30.17,East,79,0.0,4.0,72,0.00,,,0.12,Wunderground v.1.15,2013-01-16 01:47:00,
2013-01-15 20:52:00,37.2,29.3,30.17,ENE,78,0.0,0.0,73,0.00,,,0.12,Wunderground v.1.15,2013-01-16 01:52:00,
2013-01-15 20:57:00,37.2,29.0,30.17,East,79,0.0,2.0,72,0.00,,,0.12,Wunderground v.1.15,2013-01-16 01:57:00,
2013-01-15 21:02:00,37.2,29.3,30.16,East,92,0.0,2.0,73,0.00,,,0.12,Wunderground v.1.15,2013-01-16 02:02:00,
2013-01-15 21:07:00,37.2,29.0,30.16,East,92,0.0,2.0,72,0.00,,,0.12,Wunderground v.1.15,2013-01-16 02:07:00,
2013-01-15 21:12:00,37.2,29.0,30.16,East,92,0.0,0.0,72,0.00,,,0.12,Wunderground v.1.15,2013-01-16 02:12:00,
2013-01-15 21:17:00,37.2,29.3,30.16,NE,51,0.0,2.0,73,0.00,,,0.12,Wunderground v.1.15,2013-01-16 02:17:00,
2013-01-15 21:22:00,37.2,29.0,30.16,NE,38,0.0,2.0,72,0.00,,,0.12,Wunderground v.1.15,2013-01-16 02:22:00,
2013-01-15 21:27:00,37.2,29.0,30.16,NE,38,0.0,2.0,72,0.00,,,0.12,Wunderground v.1.15,2013-01-16 02:27:00,
2013-01-15 21:32:00,37.2,29.3,30.15,NE,38,0.0,2.0,73,0.00,,,0.12,Wunderground v.1.15,2013-01-16 02:32:00,
2013-01-15 21:37:00,37.2,29.3,30.15,NE,38,0.0,2.0,73,0.00,,,0.12,Wunderground v.1.15,2013-01-16 02:37:00,
2013-01-15 21:43:00,37.2,29.3,30.15,East,86,0.0,1.0,73,0.00,,,0.12,Wunderground v.1.15,2013-01-16 02:43:00,
2013-01-15 21:48:00,37.2,29.3,30.14,East,86,0.0,2.0,73,0.00,,,0.12,Wunderground v.1.15,2013-01-16 02:48:00,
2013-01-15 21:53:00,37.2,29.3,30.14,East,86,0.0,2.0,73,0.00,,,0.12,Wunderground v.1.15,2013-01-16 02:53:00,
2013-01-15 21:58:00,37.0,29.5,30.14,East,86,0.0,2.0,74,0.00,,,0.12,Wunderground v.1.15,2013-01-16 02:58:00,
2013-01-15 22:03:00,36.9,29.4,30.14,East,86,0.0,1.0,74,0.00,,,0.12,Wunderground v.1.15,2013-01-16 03:03:00,
2013-01-15 22:08:00,36.9,29.4,30.14,East,86,0.0,1.0,74,0.00,,,0.12,Wunderground v.1.15,2013-01-16 03:08:00,
2013-01-15 22:13:00,36.9,29.7,30.14,East,86,0.0,0.0,75,0.00,,,0.12,Wunderground v.1.15,2013-01-16 03:13:00,
2013-01-15 22:18:00,36.8,29.6,30.14,East,86,0.0,0.0,75,0.00,,,0.12,Wunderground v.1.15,2013-01-16 03:18:00,
2013-01-15 22:23:00,36.6,29.7,30.14,East,86,0.0,0.0,76,0.00,,,0.12,Wunderground v.1.15,2013-01-16 03:23:00,
2013-01-15 22:28:00,36.6,29.7,30.14,East,86,0.0,0.0,76,0.00,,,0.12,Wunderground v.1.15,2013-01-16 03:28:00,
2013-01-15 22:33:00,36.6,29.7,30.14,East,86,0.0,0.0,76,0.00,,,0.12,Wunderground v.1.15,2013-01-16 03:33:00,
2013-01-15 22:38:00,36.6,30.1,30.14,East,86,0.0,0.0,77,0.00,,,0.12,Wunderground v.1.15,2013-01-16 03:38:00,
2013-01-15 22:43:00,36.5,30.0,30.14,East,86,0.0,0.0,77,0.00,,,0.13,Wunderground v.1.15,2013-01-16 03:43:00,
2013-01-15 22:48:00,36.5,30.0,30.13,East,86,0.0,0.0,77,0.00,,,0.13,Wunderground v.1.15,2013-01-16 03:48:00,
2013-01-15 22:53:00,36.3,30.1,30.13,East,86,0.0,1.0,78,0.05,,,0.14,Wunderground v.1.15,2013-01-16 03:53:00,
2013-01-15 22:58:00,36.2,30.0,30.13,East,86,0.0,1.0,78,0.05,,,0.14,Wunderground v.1.15,2013-01-16 03:58:00,
2013-01-15 23:03:00,36.0,30.1,30.13,East,86,0.0,0.0,79,0.05,,,0.14,Wunderground v.1.15,2013-01-16 04:03:00,
2013-01-15 23:08:00,35.9,30.0,30.13,East,86,0.0,2.0,79,0.05,,,0.15,Wunderground v.1.15,2013-01-16 04:08:00,
2013-01-15 23:13:00,35.8,30.2,30.13,East,86,0.0,0.0,80,0.05,,,0.15,Wunderground v.1.15,2013-01-16 04:13:00,
2013-01-15 23:18:00,35.8,30.2,30.13,East,86,0.0,1.0,80,0.05,,,0.16,Wunderground v.1.15,2013-01-16 04:18:00,
2013-01-15 23:23:00,35.6,30.0,30.13,East,86,0.0,0.0,80,0.05,,,0.16,Wunderground v.1.15,2013-01-16 04:23:00,
2013-01-15 23:28:00,35.5,30.2,30.13,East,86,0.0,0.0,81,0.05,,,0.17,Wunderground v.1.15,2013-01-16 04:28:00,
2013-01-15 23:33:00,35.5,30.2,30.13,East,86,0.0,0.0,81,0.05,,,0.17,Wunderground v.1.15,2013-01-16 04:33:00,
2013-01-15 23:38:00,35.5,30.5,30.13,East,86,0.0,0.0,82,0.06,,,0.18,Wunderground v.1.15,2013-01-16 04:38:00,
2013-01-15 23:43:00,35.3,30.4,30.13,East,86,0.0,1.0,82,0.06,,,0.18,Wunderground v.1.15,2013-01-16 04:43:00,
2013-01-15 23:49:00,35.3,30.7,30.12,NE,40,0.0,3.0,83,0.06,,,0.18,Wunderground v.1.15,2013-01-16 04:49:00,
2013-01-15 23:54:00,35.3,30.7,30.12,NE,40,0.0,0.0,83,0.04,,,0.18,Wunderground v.1.15,2013-01-16 04:54:00,
2013-01-15 23:58:00,35.2,30.6,30.12,NE,40,0.0,1.0,83,0.04,,,0.19,Wunderground v.1.15,2013-01-16 04:58:00,